AAL551 KPHL-KMIA
Flight info
| Callsign | AAL551 |
|---|---|
| Flight time | N/A |
| Altitude | 40000 |
| Route | OOD TEBEE HAYDO TRPOD Q409 CRPLR BGBRD Q101 SKARP Y313 HOAGG BNFSH3 |
| Aircraft | B788/H-SDE1E2E3FGHIJ2J3J4J5M1RWXY/LB1D1 |
Departure
| Time | 2026-05-04 08:31 |
|---|---|
| Airport | Philadelphia International Airport (KPHL) |
Arrival
| Time | N/A |
|---|---|
| Airport | Miami International Airport (KMIA) |
| Time | Latitude | Longitude | Altitude | Speed | Heading |
|---|---|---|---|---|---|
| 2026-05-04 08:12 | 39.87301 | -75.24660 | 30 ft | 0 kts | 315° |
| 2026-05-04 08:24 | 39.87298 | -75.24656 | 31 ft | 3 kts | 315° |
| 2026-05-04 08:24 | 39.87279 | -75.24631 | 29 ft | 4 kts | 315° |
| 2026-05-04 08:25 | 39.87263 | -75.24613 | 30 ft | 4 kts | 345° |
| 2026-05-04 08:25 | 39.87245 | -75.24618 | 31 ft | 4 kts | 62° |
| 2026-05-04 08:25 | 39.87237 | -75.24650 | 31 ft | 4 kts | 76° |
| 2026-05-04 08:25 | 39.87234 | -75.24665 | 31 ft | 3 kts | 76° |
| 2026-05-04 08:27 | 39.87270 | -75.24123 | 31 ft | 12 kts | 85° |
| 2026-05-04 08:28 | 39.87306 | -75.23944 | 31 ft | 31 kts | 75° |
| 2026-05-04 08:28 | 39.87366 | -75.23639 | 31 ft | 35 kts | 76° |
| 2026-05-04 08:28 | 39.87426 | -75.23330 | 31 ft | 35 kts | 76° |
| 2026-05-04 08:28 | 39.87489 | -75.23021 | 31 ft | 35 kts | 73° |
| 2026-05-04 08:29 | 39.87552 | -75.22713 | 31 ft | 35 kts | 75° |
| 2026-05-04 08:29 | 39.87598 | -75.22460 | 31 ft | 21 kts | 85° |
| 2026-05-04 08:29 | 39.87533 | -75.22348 | 31 ft | 8 kts | 177° |
| 2026-05-04 08:31 | 39.86461 | -75.27478 | 2201 ft | 163 kts | 253° |
| 2026-05-04 08:33 | 39.76117 | -75.30627 | 8086 ft | 270 kts | 184° |
| 2026-05-04 08:33 | 39.74225 | -75.30583 | 9097 ft | 273 kts | 184° |
| 2026-05-04 08:35 | 39.58640 | -75.31222 | 13385 ft | 350 kts | 191° |
| 2026-05-04 08:35 | 39.56206 | -75.31642 | 14087 ft | 354 kts | 191° |
| 2026-05-04 08:35 | 39.53749 | -75.32085 | 14712 ft | 358 kts | 192° |
| 2026-05-04 08:35 | 39.51269 | -75.32542 | 15359 ft | 362 kts | 192° |
| 2026-05-04 08:37 | 39.35909 | -75.35317 | 18755 ft | 384 kts | 193° |